Time;durP1;ratioP1;P1;durP2;ratioP2;P2;SDS_P1;SDS_P2;PMS_P1;PMS_P2;Temp;Humidity;BMP_temperature;BMP_pressure;BME280_temperature;BME280_humidity;BME280_pressure;Samples;Min_cycle;Max_cycle;Signal;HPM_P1;HPM_P2
2020/12/28 00:00:25;;;;;;;45.20;31.45;;;0.70;99.90;;;;;;4992802;28;20395;-74
2020/12/28 00:02:50;;;;;;;38.75;29.90;;;0.80;99.90;;;;;;4992500;28;20478;-74
2020/12/28 00:05:18;;;;;;;35.08;28.85;;;0.70;99.90;;;;;;4992708;28;20839;-73
2020/12/28 00:07:46;;;;;;;34.28;28.30;;;0.70;99.90;;;;;;5000349;28;20410;-73
2020/12/28 00:10:12;;;;;;;36.13;29.85;;;0.70;99.90;;;;;;4992721;28;20445;-73
2020/12/28 00:12:47;;;;;;;41.72;32.25;;;0.70;99.90;;;;;;4997752;28;20419;-74
2020/12/28 00:15:21;;;;;;;34.17;27.63;;;0.60;99.90;;;;;;4992575;28;20401;-73
2020/12/28 00:17:49;;;;;;;37.70;29.97;;;0.60;99.90;;;;;;5006328;28;20905;-73
2020/12/28 00:20:17;;;;;;;38.40;31.47;;;0.60;99.90;;;;;;4992125;28;20394;-73
2020/12/28 00:22:44;;;;;;;39.35;32.63;;;0.60;99.90;;;;;;4992628;28;20386;-74
2020/12/28 00:25:11;;;;;;;39.63;31.83;;;0.60;99.90;;;;;;4997953;28;20406;-74
2020/12/28 00:27:37;;;;;;;37.20;30.73;;;0.50;99.90;;;;;;4983587;28;20434;-74
2020/12/28 00:30:04;;;;;;;37.10;29.20;;;0.60;99.90;;;;;;4975156;28;20415;-74
2020/12/28 00:32:32;;;;;;;34.20;28.30;;;0.60;99.90;;;;;;4975138;28;20515;-73
2020/12/28 00:34:57;;;;;;;35.50;29.60;;;0.70;99.90;;;;;;4991269;28;20398;-73
2020/12/28 00:37:23;;;;;;;37.17;30.27;;;0.80;99.90;;;;;;4997638;28;20818;-74
2020/12/28 00:39:50;;;;;;;39.72;32.28;;;0.70;99.90;;;;;;4992690;28;20449;-74
2020/12/28 00:42:16;;;;;;;36.70;29.48;;;0.60;99.90;;;;;;4992260;28;20390;-74
2020/12/28 00:44:42;;;;;;;36.03;29.47;;;0.70;99.90;;;;;;4992373;28;20956;-73
2020/12/28 00:47:11;;;;;;;35.28;30.20;;;0.80;99.90;;;;;;4982516;28;20408;-74
2020/12/28 00:49:37;;;;;;;42.20;34.30;;;0.70;99.90;;;;;;4978446;28;20438;-74
2020/12/28 00:52:03;;;;;;;38.70;31.40;;;0.70;99.90;;;;;;4995526;28;20468;-73
2020/12/28 00:54:29;;;;;;;40.00;32.97;;;0.60;99.90;;;;;;4992125;28;20402;-74
2020/12/28 00:56:56;;;;;;;36.47;29.40;;;0.60;99.90;;;;;;4995226;28;20799;-74
2020/12/28 00:59:22;;;;;;;37.63;30.55;;;0.70;99.90;;;;;;4981010;28;20435;-74
2020/12/28 01:01:53;;;;;;;35.72;29.65;;;0.80;99.90;;;;;;5000454;28;20406;-73
2020/12/28 01:04:19;;;;;;;38.65;30.88;;;0.80;99.90;;;;;;4988049;28;20406;-74
2020/12/28 01:06:45;;;;;;;38.08;30.98;;;0.80;99.90;;;;;;4997994;28;20961;-74
2020/12/28 01:09:11;;;;;;;38.97;32.75;;;0.70;99.90;;;;;;4991461;28;20390;-74
2020/12/28 01:11:37;;;;;;;34.70;29.67;;;0.70;99.90;;;;;;4980142;28;20489;-74
2020/12/28 01:14:04;;;;;;;44.08;36.75;;;0.70;99.90;;;;;;5005422;28;20406;-73
2020/12/28 01:16:29;;;;;;;44.65;35.95;;;0.60;99.90;;;;;;4999386;28;20910;-74
2020/12/28 01:18:55;;;;;;;39.23;33.03;;;0.60;99.90;;;;;;4992011;28;20448;-74
2020/12/28 01:21:22;;;;;;;41.30;32.80;;;0.50;99.90;;;;;;4983735;28;20830;-73
2020/12/28 01:23:48;;;;;;;35.88;30.25;;;0.60;99.90;;;;;;4991924;28;20401;-73
2020/12/28 01:26:14;;;;;;;36.25;29.33;;;0.60;99.90;;;;;;4992022;28;20391;-73
2020/12/28 01:28:40;;;;;;;38.10;31.33;;;0.70;99.90;;;;;;4985874;28;20414;-74
2020/12/28 01:31:07;;;;;;;38.03;30.95;;;0.70;99.90;;;;;;4978678;28;20406;-74
2020/12/28 01:33:33;;;;;;;39.72;31.55;;;0.70;99.90;;;;;;5006909;28;20942;-74
2020/12/28 01:35:59;;;;;;;43.30;35.38;;;0.60;99.90;;;;;;4995414;28;20394;-74
2020/12/28 01:38:25;;;;;;;44.60;35.63;;;0.60;99.90;;;;;;4995223;28;20401;-74
2020/12/28 01:40:50;;;;;;;39.80;33.83;;;0.40;99.90;;;;;;4986357;28;20434;-73
2020/12/28 01:43:17;;;;;;;39.88;33.50;;;0.50;99.90;;;;;;4984837;28;20403;-74
2020/12/28 01:45:43;;;;;;;45.85;37.15;;;0.50;99.90;;;;;;4999085;28;20420;-73
2020/12/28 01:48:10;;;;;;;43.73;35.23;;;0.40;99.90;;;;;;4995235;28;20395;-73
2020/12/28 01:50:36;;;;;;;42.65;35.50;;;0.30;99.90;;;;;;4977784;28;20418;-74
2020/12/28 01:53:03;;;;;;;43.15;36.15;;;0.30;99.90;;;;;;4994983;28;20422;-73
2020/12/28 01:55:30;;;;;;;37.22;30.13;;;0.40;99.90;;;;;;4995033;28;20394;-74
2020/12/28 01:57:56;;;;;;;41.83;34.57;;;0.40;99.90;;;;;;4994325;28;20442;-73
2020/12/28 02:00:22;;;;;;;41.70;33.63;;;0.50;99.90;;;;;;4995251;28;20398;-75
2020/12/28 02:05:22;;;;;;;34.63;29.97;;;0.50;99.90;;;;;;4972401;28;20580;-70
2020/12/28 02:07:53;;;;;;;34.15;27.95;;;0.60;99.90;;;;;;4973110;28;20412;-71
2020/12/28 02:10:19;;;;;;;36.67;28.77;;;0.70;99.90;;;;;;4974444;28;20405;-70
2020/12/28 02:12:45;;;;;;;32.15;26.73;;;0.70;99.90;;;;;;4967798;28;20418;-71
2020/12/28 02:15:11;;;;;;;27.70;23.70;;;0.70;99.90;;;;;;4960606;28;20465;-71
2020/12/28 02:17:37;;;;;;;32.50;27.43;;;0.80;99.90;;;;;;4975308;28;20840;-73
2020/12/28 02:20:03;;;;;;;30.63;26.02;;;0.80;99.90;;;;;;4974703;28;20803;-70
2020/12/28 02:22:30;;;;;;;31.48;25.98;;;0.70;99.90;;;;;;4980604;28;20400;-70
2020/12/28 02:24:56;;;;;;;34.10;28.67;;;0.50;99.90;;;;;;4975466;28;20412;-70
2020/12/28 02:27:22;;;;;;;34.83;28.20;;;0.40;99.90;;;;;;4976286;28;20458;-70
2020/12/28 02:29:48;;;;;;;37.53;31.00;;;0.30;99.90;;;;;;4974985;28;20392;-70
2020/12/28 02:32:13;;;;;;;33.05;28.40;;;0.30;99.90;;;;;;4966890;28;20412;-70
2020/12/28 02:34:39;;;;;;;31.57;26.73;;;0.30;99.90;;;;;;4974610;28;20404;-71
2020/12/28 02:37:05;;;;;;;30.77;25.58;;;0.50;99.90;;;;;;4974959;28;20443;-70
2020/12/28 02:39:32;;;;;;;35.55;27.98;;;0.60;99.90;;;;;;4977461;28;20395;-70
2020/12/28 02:41:58;;;;;;;36.63;29.97;;;0.60;99.90;;;;;;4976266;28;20491;-70
2020/12/28 02:44:24;;;;;;;36.95;30.75;;;0.40;99.90;;;;;;4974501;28;20397;-70
2020/12/28 02:46:50;;;;;;;37.25;29.02;;;0.20;99.90;;;;;;4974747;28;20392;-70
2020/12/28 02:49:15;;;;;;;32.47;25.63;;;0.20;99.90;;;;;;4977920;28;20413;-70
2020/12/28 02:51:41;;;;;;;28.05;23.33;;;0.20;99.90;;;;;;4974756;28;20396;-70
2020/12/28 02:54:07;;;;;;;27.43;23.60;;;0.40;99.90;;;;;;4973680;28;20432;-70
2020/12/28 02:56:34;;;;;;;34.90;27.42;;;0.50;99.90;;;;;;4974454;28;20396;-70
2020/12/28 02:59:00;;;;;;;33.60;26.83;;;0.50;99.90;;;;;;4975615;28;20404;-70
2020/12/28 03:01:25;;;;;;;33.40;27.90;;;0.40;99.90;;;;;;4977312;28;20412;-70
2020/12/28 03:03:51;;;;;;;34.65;29.55;;;0.30;99.90;;;;;;4977050;28;20404;-70
2020/12/28 03:06:17;;;;;;;36.75;30.52;;;0.20;99.90;;;;;;4974325;28;20439;-70
2020/12/28 03:08:43;;;;;;;34.97;29.23;;;0.10;99.90;;;;;;4968307;28;20813;-71
2020/12/28 03:11:09;;;;;;;36.33;29.52;;;0.00;99.90;;;;;;4974281;28;20803;-70
2020/12/28 03:13:36;;;;;;;33.90;27.10;;;0.00;99.90;;;;;;4965299;28;20412;-70
2020/12/28 03:16:01;;;;;;;35.70;27.42;;;0.00;99.90;;;;;;4960044;28;20926;-70
2020/12/28 03:18:27;;;;;;;35.75;27.98;;;0.00;99.90;;;;;;4959868;28;20428;-70
2020/12/28 03:20:55;;;;;;;42.40;29.40;;;0.10;99.90;;;;;;4966844;28;20447;-70
2020/12/28 03:23:21;;;;;;;35.28;24.73;;;0.10;99.90;;;;;;4974015;28;20396;-71
2020/12/28 03:25:47;;;;;;;30.80;22.53;;;0.10;99.90;;;;;;4974157;28;20781;-70
2020/12/28 03:28:13;;;;;;;27.75;21.58;;;0.20;99.90;;;;;;4974066;28;20400;-71
2020/12/28 03:30:40;;;;;;;25.38;20.30;;;0.30;99.90;;;;;;4973879;28;20392;-70
2020/12/28 03:33:06;;;;;;;26.25;20.42;;;0.40;99.90;;;;;;4973959;28;20427;-70
2020/12/28 03:35:31;;;;;;;24.35;19.35;;;0.50;99.90;;;;;;4971960;28;20896;-73
2020/12/28 03:37:57;;;;;;;32.13;21.57;;;0.60;99.90;;;;;;4963593;28;20411;-73
2020/12/28 03:40:23;;;;;;;46.72;28.90;;;0.60;99.90;;;;;;4973680;28;20442;-73
2020/12/28 03:42:49;;;;;;;34.03;23.17;;;0.70;99.90;;;;;;4964928;28;20400;-73
2020/12/28 03:45:15;;;;;;;23.38;19.55;;;0.80;99.90;;;;;;4977835;28;20411;-73
2020/12/28 03:47:42;;;;;;;27.40;21.30;;;0.80;99.90;;;;;;4973682;28;20451;-73
2020/12/28 03:50:07;;;;;;;26.17;22.43;;;0.80;99.90;;;;;;4969592;28;20406;-73
2020/12/28 03:52:39;;;;;;;28.63;23.17;;;0.80;99.90;;;;;;4972743;28;20427;-73
2020/12/28 03:55:05;;;;;;;29.33;22.20;;;0.80;99.90;;;;;;4973666;28;20396;-73
2020/12/28 03:57:31;;;;;;;30.90;25.73;;;0.80;99.90;;;;;;4973526;28;20807;-73
2020/12/28 03:59:56;;;;;;;28.17;24.70;;;0.70;99.90;;;;;;4967250;28;20408;-73
2020/12/28 04:02:22;;;;;;;30.50;25.13;;;0.60;99.90;;;;;;4973443;28;20388;-73
2020/12/28 04:04:49;;;;;;;31.15;25.20;;;0.50;99.90;;;;;;4978261;28;20489;-73
2020/12/28 04:07:15;;;;;;;33.33;26.38;;;0.30;99.90;;;;;;4960312;28;20415;-73
2020/12/28 04:09:41;;;;;;;34.50;27.10;;;0.10;99.90;;;;;;4955072;28;20909;-73
2020/12/28 04:12:07;;;;;;;31.45;26.00;;;0.00;99.90;;;;;;4973114;28;20430;-73
2020/12/28 04:14:33;;;;;;;27.17;22.67;;;0.00;99.90;;;;;;4973396;28;20914;-73
2020/12/28 04:16:59;;;;;;;24.38;20.70;;;0.10;99.90;;;;;;4973346;28;20396;-73
2020/12/28 04:19:25;;;;;;;21.37;18.33;;;0.20;99.90;;;;;;4959487;28;20421;-73
2020/12/28 04:21:51;;;;;;;20.92;18.25;;;0.20;99.90;;;;;;4965061;28;20451;-73
2020/12/28 04:24:17;;;;;;;20.45;16.33;;;0.40;99.90;;;;;;4973335;28;20793;-73
2020/12/28 04:26:43;;;;;;;18.90;14.83;;;0.40;99.90;;;;;;4962938;28;20464;-73
2020/12/28 04:29:10;;;;;;;14.93;13.05;;;0.30;99.90;;;;;;4973293;28;20924;-73
2020/12/28 04:31:36;;;;;;;15.52;12.60;;;0.20;99.90;;;;;;4970925;28;20412;-73
2020/12/28 04:34:02;;;;;;;15.05;12.90;;;0.20;99.90;;;;;;4969212;28;20945;-73
2020/12/28 04:36:28;;;;;;;17.88;13.07;;;0.30;99.90;;;;;;4955967;28;20409;-73
2020/12/28 04:38:55;;;;;;;15.07;13.18;;;0.40;99.90;;;;;;4963225;28;20450;-73
2020/12/28 04:41:21;;;;;;;17.75;14.07;;;0.40;99.90;;;;;;4965025;28;20454;-73
2020/12/28 04:43:47;;;;;;;16.30;14.27;;;0.50;99.90;;;;;;4972979;28;20448;-73
2020/12/28 04:46:13;;;;;;;15.05;13.45;;;0.50;99.90;;;;;;4956465;28;20408;-73
2020/12/28 04:48:40;;;;;;;19.60;15.73;;;0.60;99.90;;;;;;4973146;28;20399;-73
2020/12/28 04:51:07;;;;;;;19.10;15.40;;;0.60;99.90;;;;;;4972804;28;20404;-73
2020/12/28 04:53:35;;;;;;;17.27;14.75;;;0.60;99.90;;;;;;4973009;28;20847;-73
2020/12/28 04:56:02;;;;;;;15.90;14.20;;;0.60;99.90;;;;;;4972860;28;20473;-73
2020/12/28 04:58:27;;;;;;;17.73;14.98;;;0.70;99.90;;;;;;4972972;28;20419;-73
2020/12/28 05:01:00;;;;;;;18.55;16.05;;;0.60;99.90;;;;;;4965206;28;20807;-73
2020/12/28 05:03:27;;;;;;;17.55;15.43;;;0.60;99.90;;;;;;4972686;28;20408;-73
2020/12/28 05:05:53;;;;;;;17.65;15.43;;;0.70;99.90;;;;;;4974796;28;20400;-73
2020/12/28 05:08:19;;;;;;;20.60;18.13;;;0.70;99.90;;;;;;4965853;28;20407;-72
2020/12/28 05:10:45;;;;;;;19.33;15.38;;;0.60;99.90;;;;;;4966160;28;20412;-72
2020/12/28 05:13:14;;;;;;;15.90;14.10;;;0.50;99.90;;;;;;4981733;28;21245;-72
2020/12/28 05:15:48;;;;;;;14.35;12.85;;;0.50;99.90;;;;;;4967457;28;20778;-72
2020/12/28 05:18:15;;;;;;;13.02;10.43;;;0.50;99.90;;;;;;4970549;28;20543;-73
2020/12/28 05:20:43;;;;;;;11.80;10.57;;;0.60;99.90;;;;;;4976411;28;20486;-72
2020/12/28 05:23:09;;;;;;;12.35;11.02;;;0.60;99.90;;;;;;4971994;28;20400;-73
2020/12/28 05:25:35;;;;;;;11.57;9.73;;;0.60;99.90;;;;;;4978481;28;20415;-73
2020/12/28 05:28:03;;;;;;;11.60;10.10;;;0.60;99.90;;;;;;4968512;28;20400;-73
2020/12/28 05:30:32;;;;;;;13.00;10.93;;;0.60;99.90;;;;;;4976076;28;20404;-73
2020/12/28 05:33:02;;;;;;;13.50;11.27;;;0.60;99.90;;;;;;4976212;28;20591;-73
2020/12/28 05:35:28;;;;;;;13.85;12.45;;;0.50;99.90;;;;;;4965483;28;20408;-73
2020/12/28 05:37:56;;;;;;;13.05;11.35;;;0.50;99.90;;;;;;4976119;28;20403;-72
2020/12/28 05:40:24;;;;;;;13.27;11.45;;;0.50;99.90;;;;;;4975917;28;20402;-73
2020/12/28 05:42:51;;;;;;;14.18;12.45;;;0.50;99.90;;;;;;4976086;28;20424;-73
2020/12/28 05:45:17;;;;;;;14.77;12.90;;;0.50;99.90;;;;;;4976069;28;20392;-73
2020/12/28 05:47:50;;;;;;;15.77;13.70;;;0.50;99.90;;;;;;4978200;28;20398;-73
2020/12/28 05:50:19;;;;;;;16.55;14.85;;;0.50;99.90;;;;;;4958964;28;20771;-72
2020/12/28 05:52:56;;;;;;;18.77;16.85;;;0.50;99.90;;;;;;4970956;28;20420;-72
2020/12/28 05:55:24;;;;;;;17.38;15.02;;;0.50;99.90;;;;;;4975827;28;20860;-72
2020/12/28 05:57:50;;;;;;;17.38;14.75;;;0.40;99.90;;;;;;4959812;28;20408;-72
2020/12/28 06:00:17;;;;;;;15.27;13.68;;;0.40;99.90;;;;;;4974325;28;20438;-72
2020/12/28 06:02:46;;;;;;;14.77;12.10;;;0.40;99.90;;;;;;4973719;28;20400;-72
2020/12/28 06:05:13;;;;;;;13.63;12.23;;;0.40;99.90;;;;;;4955089;28;20420;-72
2020/12/28 06:07:39;;;;;;;14.07;12.10;;;0.50;99.90;;;;;;4968956;28;20404;-72
2020/12/28 06:10:06;;;;;;;13.15;11.57;;;0.50;99.90;;;;;;4958223;28;20907;-73
2020/12/28 06:12:32;;;;;;;13.82;11.70;;;0.50;99.90;;;;;;4975042;28;20463;-72
2020/12/28 06:14:59;;;;;;;13.73;12.00;;;0.50;99.90;;;;;;4968216;28;20400;-72
2020/12/28 06:17:33;;;;;;;12.60;11.27;;;0.50;99.90;;;;;;4958671;28;20420;-72
2020/12/28 06:20:05;;;;;;;12.38;11.07;;;0.50;99.90;;;;;;4967415;28;20466;-72
2020/12/28 06:22:32;;;;;;;13.90;11.85;;;0.50;99.90;;;;;;4968284;28;20410;-72
2020/12/28 06:25:00;;;;;;;13.00;11.63;;;0.50;99.90;;;;;;4974149;28;20399;-72
2020/12/28 06:27:30;;;;;;;14.07;11.82;;;0.50;99.90;;;;;;4957949;28;20413;-72
2020/12/28 06:30:15;;;;;;;13.18;11.77;;;0.50;99.90;;;;;;4964929;28;20864;-72
2020/12/28 06:32:43;;;;;;;14.32;12.30;;;0.50;99.90;;;;;;4971619;28;20831;-72
2020/12/28 06:35:11;;;;;;;15.55;13.40;;;0.40;99.90;;;;;;4968679;28;20404;-73
2020/12/28 06:37:39;;;;;;;14.52;13.02;;;0.30;99.90;;;;;;4971741;28;20404;-72
2020/12/28 06:40:05;;;;;;;16.27;13.90;;;0.30;99.90;;;;;;4968368;28;20436;-72
2020/12/28 06:42:31;;;;;;;15.68;13.60;;;0.20;99.90;;;;;;4952120;28;20752;-72
2020/12/28 06:44:57;;;;;;;13.83;12.13;;;0.10;99.90;;;;;;4974814;28;20454;-72
2020/12/28 06:47:24;;;;;;;12.68;11.38;;;0.10;99.90;;;;;;4973945;28;20444;-72
2020/12/28 06:49:51;;;;;;;12.82;11.10;;;0.20;99.90;;;;;;4955635;28;20412;-72
2020/12/28 06:52:18;;;;;;;12.27;10.95;;;0.30;99.90;;;;;;4973186;28;20839;-72
2020/12/28 06:54:44;;;;;;;12.93;10.95;;;0.40;99.90;;;;;;4957736;28;20508;-72
2020/12/28 06:57:10;;;;;;;13.70;11.73;;;0.40;99.90;;;;;;4974009;28;20436;-70
2020/12/28 06:59:38;;;;;;;15.65;13.10;;;0.50;99.90;;;;;;4956734;28;20926;-70
2020/12/28 07:02:06;;;;;;;17.35;13.85;;;0.40;99.90;;;;;;4965230;28;20416;-69
2020/12/28 07:04:34;;;;;;;17.38;14.68;;;0.30;99.90;;;;;;4963437;28;20424;-69
2020/12/28 07:07:01;;;;;;;16.30;13.65;;;0.10;99.90;;;;;;4956015;28;20415;-69
2020/12/28 07:09:27;;;;;;;17.57;13.57;;;0.10;99.90;;;;;;4953701;28;20408;-72
2020/12/28 07:11:53;;;;;;;13.57;11.95;;;0.10;99.90;;;;;;4961192;28;20820;-72
2020/12/28 07:14:20;;;;;;;14.32;12.10;;;0.10;99.90;;;;;;4972595;28;20446;-72
2020/12/28 07:16:52;;;;;;;13.05;11.68;;;0.20;99.90;;;;;;4971896;28;20409;-72
2020/12/28 07:19:18;;;;;;;14.63;12.18;;;0.30;99.90;;;;;;4972546;28;20392;-72
2020/12/28 07:21:43;;;;;;;13.50;12.02;;;0.30;99.90;;;;;;4957497;28;20768;-73
2020/12/28 07:24:09;;;;;;;13.18;11.77;;;0.40;99.90;;;;;;4972273;28;20404;-72
2020/12/28 07:26:37;;;;;;;13.50;11.68;;;0.40;99.90;;;;;;4968354;28;20400;-72
2020/12/28 07:29:11;;;;;;;13.85;11.75;;;0.40;99.90;;;;;;4967899;28;20787;-72
2020/12/28 07:31:37;;;;;;;15.87;13.67;;;0.40;99.90;;;;;;4972731;28;20498;-72
2020/12/28 07:34:04;;;;;;;15.48;13.68;;;0.40;99.90;;;;;;4954183;28;20419;-72
2020/12/28 07:36:30;;;;;;;14.77;13.20;;;0.30;99.90;;;;;;4972710;28;20396;-72
2020/12/28 07:38:56;;;;;;;14.43;12.43;;;0.30;99.90;;;;;;4972274;28;20492;-72
2020/12/28 07:41:24;;;;;;;14.90;12.77;;;0.40;99.90;;;;;;4971987;28;20487;-72
2020/12/28 07:43:52;;;;;;;14.55;12.45;;;0.40;99.90;;;;;;4972794;28;20403;-72
2020/12/28 07:46:25;;;;;;;16.20;12.97;;;0.50;99.90;;;;;;4972783;28;20417;-72
2020/12/28 07:48:55;;;;;;;14.10;12.00;;;0.50;99.90;;;;;;4972325;28;20426;-70
2020/12/28 07:51:24;;;;;;;15.00;12.75;;;0.50;99.90;;;;;;4972026;28;20396;-72
2020/12/28 07:53:57;;;;;;;16.10;13.63;;;0.50;99.90;;;;;;4961732;28;20420;-72
2020/12/28 07:56:28;;;;;;;14.95;13.35;;;0.60;99.90;;;;;;4975090;28;20913;-72
2020/12/28 07:59:08;;;;;;;16.77;14.23;;;0.60;99.90;;;;;;4958218;28;20499;-72
2020/12/28 08:01:37;;;;;;;19.33;15.32;;;0.60;99.90;;;;;;4957227;28;20416;-72
2020/12/28 08:04:07;;;;;;;16.57;14.03;;;0.60;99.90;;;;;;4975164;28;20483;-73
2020/12/28 08:06:33;;;;;;;15.27;13.68;;;0.50;99.90;;;;;;4948321;28;20429;-73
2020/12/28 08:09:00;;;;;;;14.77;12.20;;;0.60;99.90;;;;;;4966217;28;20435;-70
2020/12/28 08:11:28;;;;;;;14.80;12.53;;;0.50;99.90;;;;;;4973155;28;20914;-71
2020/12/28 08:13:54;;;;;;;15.15;13.55;;;0.50;99.90;;;;;;4964853;28;20423;-71
2020/12/28 08:16:21;;;;;;;19.65;15.90;;;0.40;99.90;;;;;;4968355;28;20412;-71
2020/12/28 08:18:49;;;;;;;20.73;16.17;;;0.30;99.90;;;;;;4966628;28;20535;-71
2020/12/28 08:21:15;;;;;;;20.50;17.52;;;0.30;99.90;;;;;;4973340;28;20396;-71
2020/12/28 08:23:49;;;;;;;19.33;15.80;;;0.30;99.90;;;;;;4967921;28;20764;-71
2020/12/28 08:26:17;;;;;;;19.50;16.50;;;0.30;99.90;;;;;;4973403;28;20392;-73
2020/12/28 08:28:46;;;;;;;20.63;16.13;;;0.30;99.90;;;;;;4968488;28;20471;-71
2020/12/28 08:31:12;;;;;;;19.98;16.35;;;0.40;99.90;;;;;;4962997;28;20899;-71
2020/12/28 08:33:40;;;;;;;20.10;15.85;;;0.40;99.90;;;;;;4973018;28;20416;-71
2020/12/28 08:36:06;;;;;;;17.88;15.15;;;0.50;99.90;;;;;;4964214;28;20408;-71
2020/12/28 08:38:32;;;;;;;16.63;13.95;;;0.60;99.90;;;;;;4973281;28;20483;-71
2020/12/28 08:40:59;;;;;;;18.83;14.33;;;0.50;99.90;;;;;;4960058;28;20562;-71
2020/12/28 08:43:25;;;;;;;17.02;13.80;;;0.40;99.90;;;;;;4977117;28;20396;-71
2020/12/28 08:46:01;;;;;;;19.15;15.38;;;0.40;99.90;;;;;;4979110;28;20417;-71
2020/12/28 08:48:26;;;;;;;21.75;16.70;;;0.30;99.90;;;;;;4974506;28;20500;-72
2020/12/28 08:50:53;;;;;;;22.58;16.70;;;0.30;99.90;;;;;;4962327;28;20499;-71
2020/12/28 08:53:23;;;;;;;17.90;15.13;;;0.30;99.90;;;;;;4959845;28;20481;-71
2020/12/28 08:55:59;;;;;;;17.20;13.63;;;0.30;99.90;;;;;;4976792;28;20424;-71
2020/12/28 08:58:25;;;;;;;18.83;15.68;;;0.40;99.90;;;;;;4960743;28;20408;-71
2020/12/28 09:00:51;;;;;;;20.33;16.73;;;0.60;99.90;;;;;;4976760;28;20404;-73
2020/12/28 09:03:17;;;;;;;21.93;16.97;;;0.60;99.90;;;;;;4959921;28;20462;-73
2020/12/28 09:05:43;;;;;;;23.30;17.83;;;0.70;99.90;;;;;;4976834;28;20395;-72
2020/12/28 09:08:09;;;;;;;21.50;17.07;;;0.80;99.90;;;;;;4976591;28;20398;-72
2020/12/28 09:10:35;;;;;;;20.38;16.60;;;0.70;99.90;;;;;;4978573;28;20970;-72
2020/12/28 09:13:01;;;;;;;21.25;16.50;;;0.70;99.90;;;;;;4980481;28;20456;-73
2020/12/28 09:15:27;;;;;;;23.63;18.52;;;0.80;99.90;;;;;;4976791;28;20880;-73
2020/12/28 09:17:53;;;;;;;22.77;17.87;;;0.80;99.90;;;;;;4964928;28;20454;-73
2020/12/28 09:20:19;;;;;;;21.60;16.98;;;0.70;99.90;;;;;;4976320;28;20418;-73
2020/12/28 09:22:45;;;;;;;21.13;16.83;;;0.80;99.90;;;;;;4976503;28;20392;-73
2020/12/28 09:25:12;;;;;;;22.75;17.73;;;0.90;99.90;;;;;;4976276;28;20403;-73
2020/12/28 09:27:38;;;;;;;21.83;17.17;;;0.90;99.90;;;;;;4970137;28;20433;-73
2020/12/28 09:30:07;;;;;;;22.53;17.60;;;1.00;99.90;;;;;;4976376;28;20767;-73
2020/12/28 09:32:33;;;;;;;19.58;15.48;;;1.10;99.90;;;;;;4965347;28;20778;-73
2020/12/28 09:34:58;;;;;;;18.50;14.50;;;1.20;99.90;;;;;;4970290;28;20504;-73
2020/12/28 09:37:24;;;;;;;17.90;14.30;;;1.40;99.90;;;;;;4976330;28;20504;-73
2020/12/28 09:39:50;;;;;;;16.20;13.65;;;1.40;99.90;;;;;;4979387;28;20456;-73
2020/12/28 09:42:17;;;;;;;14.55;12.52;;;1.40;99.90;;;;;;4976062;28;20891;-73
2020/12/28 09:44:43;;;;;;;16.27;11.70;;;1.50;99.90;;;;;;4977141;28;20039;-74
2020/12/28 09:47:08;;;;;;;;;;;1.50;99.90;;;;;;4977539;28;20039;-74
2020/12/28 09:49:34;;;;;;;14.32;10.45;;;1.40;99.90;;;;;;4968469;28;20436;-74
2020/12/28 09:52:00;;;;;;;15.73;12.17;;;1.50;99.90;;;;;;4974840;28;20401;-74
2020/12/28 09:54:26;;;;;;;14.75;11.50;;;1.40;99.90;;;;;;4958547;28;20443;-74
2020/12/28 09:56:52;;;;;;;13.55;10.35;;;1.60;99.90;;;;;;4979807;28;20043;-74
2020/12/28 09:59:19;;;;;;;14.20;10.63;;;1.60;99.90;;;;;;4967839;28;20085;-74
2020/12/28 10:01:46;;;;;;;13.75;9.23;;;;;;;;;;4968586;28;20043;-75
2020/12/28 10:04:12;;;;;;;15.85;10.40;;;1.60;99.90;;;;;;4966843;28;20086;-74
2020/12/28 10:06:38;;;;;;;;;;;1.60;99.70;;;;;;4967971;28;20458;-75
2020/12/28 10:09:05;;;;;;;;;;;1.70;99.70;;;;;;4984436;28;20278;-74
2020/12/28 10:11:30;;;;;;;;;;;1.60;99.90;;;;;;4966890;28;20263;-75
2020/12/28 10:13:56;;;;;;;;;;;1.60;99.90;;;;;;4983370;28;19936;-74
2020/12/28 10:16:23;;;;;;;;;;;1.60;99.90;;;;;;4984439;28;20345;-75
2020/12/28 10:18:49;;;;;;;;;;;1.60;99.90;;;;;;4966703;28;19929;-75
2020/12/28 10:21:15;;;;;;;;;;;1.60;99.90;;;;;;4983660;28;19917;-75
2020/12/28 10:23:40;;;;;;;;;;;1.50;99.90;;;;;;4984193;28;19975;-75
2020/12/28 10:26:06;;;;;;;;;;;1.50;99.90;;;;;;4984668;28;19933;-75
2020/12/28 10:28:33;;;;;;;;;;;1.60;99.90;;;;;;4968082;28;20341;-74
2020/12/28 10:30:59;;;;;;;;;;;1.70;99.90;;;;;;4984319;28;19925;-74
2020/12/28 10:33:25;;;;;;;;;;;1.80;99.80;;;;;;4966002;28;19921;-74
2020/12/28 10:35:51;;;;;;;;;;;1.90;99.80;;;;;;4967832;28;20807;-74
2020/12/28 10:38:16;;;;;;;;;;;1.90;99.90;;;;;;4967150;28;19976;-74
2020/12/28 10:40:42;;;;;;;;;;;1.90;99.90;;;;;;4982894;28;20435;-74
2020/12/28 10:43:08;;;;;;;;;;;1.90;99.90;;;;;;4982262;28;19968;-74
2020/12/28 10:45:33;;;;;;;;;;;2.00;98.00;;;;;;4981991;28;19973;-74
2020/12/28 10:47:59;;;;;;;;;;;1.90;99.90;;;;;;4965704;28;19964;-75
2020/12/28 10:50:26;;;;;;;;;;;1.80;99.90;;;;;;4983143;28;20333;-73
2020/12/28 10:52:51;;;;;;;;;;;1.90;98.70;;;;;;4970224;28;20014;-74
2020/12/28 10:55:17;;;;;;;;;;;1.90;99.60;;;;;;4985198;28;20355;-74
2020/12/28 10:57:42;;;;;;;;;;;2.00;99.90;;;;;;4966679;28;20439;-74
2020/12/28 11:00:08;;;;;;;;;;;2.00;99.90;;;;;;4983286;28;20490;-75
2020/12/28 11:02:34;;;;;;;;;;;1.90;99.60;;;;;;4981223;28;20369;-74
2020/12/28 11:04:59;;;;;;;;;;;1.80;99.90;;;;;;4966857;28;19922;-74
2020/12/28 11:07:26;;;;;;;;;;;1.90;99.90;;;;;;4981182;28;20017;-75
2020/12/28 11:09:52;;;;;;;;;;;1.90;99.90;;;;;;4983386;28;19936;-74
2020/12/28 11:12:17;;;;;;;;;;;1.90;99.90;;;;;;4964286;28;20008;-74
2020/12/28 11:14:43;;;;;;;;;;;2.00;99.90;;;;;;4964267;28;20396;-74
2020/12/28 11:17:08;;;;;;;;;;;2.00;99.90;;;;;;4982436;28;19918;-74
2020/12/28 11:19:34;;;;;;;;;;;2.00;99.90;;;;;;4982500;28;20326;-74
2020/12/28 11:22:00;;;;;;;;;;;2.00;99.90;;;;;;4983157;28;19941;-74
2020/12/28 11:24:29;;;;;;;;;;;2.20;99.90;;;;;;4982228;28;19918;-73
2020/12/28 11:26:55;;;;;;;;;;;2.30;99.90;;;;;;4965873;28;20270;-74
2020/12/28 11:29:21;;;;;;;;;;;2.40;98.90;;;;;;4965930;28;19971;-74
2020/12/28 11:31:46;;;;;;;;;;;2.60;99.30;;;;;;4980532;28;19959;-74
2020/12/28 11:34:12;;;;;;;4.15;3.50;;;;;;;;;;4987672;28;19935;-74
2020/12/28 11:36:41;;;;;;;5.50;4.57;;;;;;;;;;4983021;28;20134;-74
2020/12/28 11:39:07;;;;;;;11.25;6.40;;;;;;;;;;4980905;28;20117;-74
2020/12/28 11:41:34;;;;;;;6.32;5.07;;;;;;;;;;4981065;28;20038;-74
2020/12/28 11:44:00;;;;;;;7.25;5.30;;;;;;;;;;4980924;28;20489;-74
2020/12/28 11:46:26;;;;;;;5.05;4.35;;;;;;;;;;4977703;28;20382;-74
2020/12/28 11:48:52;;;;;;;6.25;4.75;;;;;;;;;;4981899;28;20505;-74
2020/12/28 11:51:19;;;;;;;6.80;4.10;;;;;;;;;;4964704;28;20038;-75
2020/12/28 11:53:46;;;;;;;6.45;5.13;;;2.80;96.50;;;;;;4964401;28;20482;-74
2020/12/28 11:56:12;;;;;;;5.93;4.38;;;3.30;95.30;;;;;;4981487;28;20034;-75
2020/12/28 11:58:41;;;;;;;6.88;4.88;;;3.10;96.10;;;;;;4980602;28;20042;-74
2020/12/28 12:01:13;;;;;;;6.55;5.20;;;2.90;96.90;;;;;;4964218;28;20051;-75
2020/12/28 12:03:38;;;;;;;6.13;4.55;;;3.00;97.00;;;;;;4964516;28;20046;-74
2020/12/28 12:06:04;;;;;;;6.53;5.32;;;3.00;96.90;;;;;;4982677;28;20108;-75
2020/12/28 12:08:30;;;;;;;6.40;4.28;;;3.10;97.10;;;;;;4961261;28;20137;-75
2020/12/28 12:10:56;;;;;;;5.38;4.78;;;3.10;97.10;;;;;;4974556;28;20034;-74
2020/12/28 12:13:22;;;;;;;5.75;4.28;;;3.10;97.30;;;;;;4964791;28;20054;-75
2020/12/28 12:15:52;;;;;;;4.63;4.10;;;3.10;96.80;;;;;;4956639;28;20113;-74
2020/12/28 12:18:18;;;;;;;7.60;4.88;;;3.30;96.00;;;;;;4969866;28;20046;-75
2020/12/28 12:20:44;;;;;;;6.22;5.32;;;3.30;95.80;;;;;;4961076;28;20035;-74
2020/12/28 12:23:09;;;;;;;5.03;4.10;;;3.30;96.70;;;;;;4966632;28;20085;-75
2020/12/28 12:25:36;;;;;;;5.22;4.05;;;;;;;;;;4967049;28;20332;-74
2020/12/28 12:28:02;;;;;;;6.22;4.03;;;3.60;99.90;;;;;;4972906;28;20042;-75
2020/12/28 12:30:29;;;;;;;5.45;4.75;;;3.50;96.00;;;;;;4961908;28;20148;-75
2020/12/28 12:32:58;;;;;;;6.65;4.63;;;3.70;95.50;;;;;;4963925;28;20105;-75
2020/12/28 12:35:24;;;;;;;7.78;5.82;;;3.70;95.50;;;;;;4979915;28;20041;-75
2020/12/28 12:37:50;;;;;;;6.72;5.47;;;3.80;95.60;;;;;;4982275;28;20113;-75
2020/12/28 12:40:16;;;;;;;6.13;5.20;;;3.80;95.60;;;;;;4979713;28;20430;-75
2020/12/28 12:42:42;;;;;;;6.15;5.20;;;3.70;96.00;;;;;;4962132;28;20041;-75
2020/12/28 12:45:07;;;;;;;5.93;5.28;;;3.70;96.20;;;;;;4963611;28;20049;-74
2020/12/28 12:47:33;;;;;;;9.10;6.57;;;3.80;95.90;;;;;;4961293;28;20073;-75
2020/12/28 12:50:00;;;;;;;7.40;5.80;;;3.90;95.60;;;;;;4977500;28;20035;-75
2020/12/28 12:52:27;;;;;;;7.03;5.95;;;3.90;95.50;;;;;;4967045;28;20050;-75